Time;durP1;ratioP1;P1;durP2;ratioP2;P2;SDS_P1;SDS_P2;PMS_P1;PMS_P2;Temp;Humidity;BMP_temperature;BMP_pressure;BME280_temperature;BME280_humidity;BME280_pressure;Samples;Min_cycle;Max_cycle;Signal;HPM_P1;HPM_P2
2022/03/11 00:00:45;;;;;;;20.67;14.68;;;;;;;;;;6151458;23;20433;-89
2022/03/11 00:03:12;;;;;;;21.95;13.35;;;;;;;;;;6125524;23;20006;-89
2022/03/11 00:05:39;;;;;;;19.00;12.35;;;;;;;;;;6125486;23;20088;-88
2022/03/11 00:08:05;;;;;;;22.27;14.15;;;;;;;;;;6126883;23;20013;-89
2022/03/11 00:10:31;;;;;;;18.90;12.80;;;;;;;;;;6128052;23;20006;-88
2022/03/11 00:12:58;;;;;;;21.17;14.40;;;;;;;;;;6127426;23;20009;-89
2022/03/11 00:15:24;;;;;;;18.60;12.57;;;;;;;;;;6127168;23;20005;-90
2022/03/11 00:17:51;;;;;;;24.80;14.52;;;;;;;;;;6127247;23;20009;-89
2022/03/11 00:20:20;;;;;;;24.75;14.80;;;;;;;;;;6153312;23;20006;-89
2022/03/11 00:22:47;;;;;;;21.42;14.45;;;;;;;;;;6153275;23;20002;-90
2022/03/11 00:25:14;;;;;;;21.10;13.40;;;;;;;;;;6127510;23;20005;-89
2022/03/11 00:27:40;;;;;;;19.77;14.05;;;;;;;;;;6126967;23;20009;-89
2022/03/11 00:30:06;;;;;;;21.83;14.88;;;;;;;;;;6127190;23;20009;-90
2022/03/11 00:32:32;;;;;;;22.05;14.40;;;;;;;;;;6128060;23;20350;-91
2022/03/11 00:34:59;;;;;;;18.55;13.60;;;;;;;;;;6127223;23;20009;-90
2022/03/11 00:37:25;;;;;;;19.95;13.57;;;;;;;;;;6127366;23;20009;-90
2022/03/11 00:39:51;;;;;;;21.45;13.98;;;;;;;;;;6126911;23;20390;-91
2022/03/11 00:42:17;;;;;;;22.48;14.70;;;;;;;;;;6127006;23;20013;-90
2022/03/11 00:44:44;;;;;;;20.20;14.55;;;;;;;;;;6127085;23;20005;-90
2022/03/11 00:47:10;;;;;;;18.40;13.32;;;;;;;;;;6126804;23;20013;-89
2022/03/11 00:49:37;;;;;;;21.20;14.52;;;;;;;;;;6127131;23;20006;-89
2022/03/11 00:52:04;;;;;;;19.15;13.60;;;;;;;;;;6154020;23;20338;-88
2022/03/11 00:54:30;;;;;;;19.10;13.52;;;;;;;;;;6127066;23;20345;-90
2022/03/11 00:56:57;;;;;;;22.05;13.38;;;;;;;;;;6126965;23;20016;-89
2022/03/11 00:59:23;;;;;;;18.52;12.90;;;;;;;;;;6127168;23;20041;-88
2022/03/11 01:01:49;;;;;;;21.45;13.18;;;;;;;;;;6126544;23;20014;-91
2022/03/11 01:04:15;;;;;;;21.70;13.50;;;;;;;;;;6152726;23;20008;-87
2022/03/11 01:06:41;;;;;;;20.90;14.05;;;;;;;;;;6152243;23;20012;-88
2022/03/11 01:09:08;;;;;;;19.70;13.35;;;;;;;;;;6126180;23;20010;-87
2022/03/11 01:11:34;;;;;;;18.02;13.07;;;;;;;;;;6127391;23;20033;-88
2022/03/11 01:14:00;;;;;;;18.67;14.13;;;;;;;;;;6152296;23;20004;-87
2022/03/11 01:16:27;;;;;;;20.45;12.77;;;;;;;;;;6126027;23;20260;-87
2022/03/11 01:19:19;;;;;;;18.88;13.20;;;;;;;;;;6152544;23;20002;-93
2022/03/11 01:22:19;;;;;;;23.95;13.57;;;;;;;;;;6124677;23;20017;-94
2022/03/11 01:25:29;;;;;;;19.35;12.73;;;;;;;;;;6127586;23;20014;-94
2022/03/11 01:31:17;;;;;;;;;;;;;;;;;;;;;
2022/03/11 01:34:06;;;;;;;17.38;12.13;;;;;;;;;;6092683;23;20180;-92
2022/03/11 01:39:48;;;;;;;17.65;11.40;;;;;;;;;;6092124;23;20399;-91
2022/03/11 01:45:14;;;;;;;15.82;11.73;;;;;;;;;;6153171;23;20039;-93
2022/03/11 01:47:53;;;;;;;19.13;11.32;;;;;;;;;;6151880;23;20016;-93
2022/03/11 01:53:15;;;;;;;16.23;10.98;;;;;;;;;;6121278;23;20085;-89
2022/03/11 01:56:01;;;;;;;18.67;11.32;;;;;;;;;;6146967;23;20036;-92
2022/03/11 01:58:28;;;;;;;14.52;10.57;;;;;;;;;;6157008;23;20425;-93
2022/03/11 02:01:07;;;;;;;;;;;;;;;;;;;;;
2022/03/11 02:07:05;;;;;;;;;;;;;;;;;;;;;
2022/03/11 02:09:43;;;;;;;17.88;11.38;;;;;;;;;;6121423;23;20077;-91
2022/03/11 02:12:39;;;;;;;;;;;;;;;;;;;;;
2022/03/11 02:15:15;;;;;;;14.88;10.48;;;;;;;;;;6122448;23;20698;-91
2022/03/11 02:30:04;;;;;;;17.88;10.13;;;;;;;;;;5947102;24;20028;-92
2022/03/11 02:50:39;;;;;;;17.20;11.90;;;;;;;;;;5841841;24;20010;-91
2022/03/11 02:53:18;;;;;;;;;;;;;;;;;;;;;
2022/03/11 02:56:23;;;;;;;;;;;;;;;;;;;;;
2022/03/11 02:59:11;;;;;;;;;;;;;;;;;;;;;
2022/03/11 03:01:49;;;;;;;;;;;;;;;;;;;;;
2022/03/11 03:07:11;;;;;;;18.67;12.68;;;;;;;;;;5841587;24;20021;-90
2022/03/11 03:09:49;;;;;;;21.02;12.57;;;;;;;;;;5998644;23;20004;-90
2022/03/11 03:12:18;;;;;;;18.97;11.73;;;;;;;;;;6005789;23;20011;-90
2022/03/11 03:14:46;;;;;;;;;;;;;;;;;;6028342;23;20009;-91
2022/03/11 03:17:22;;;;;;;;;;;;;;;;;;;;;
2022/03/11 03:19:49;;;;;;;17.90;11.98;;;;;;;;;;6152499;23;20076;-91
2022/03/11 03:22:38;;;;;;;18.50;12.40;;;;;;;;;;6126499;23;20126;-92
2022/03/11 03:25:14;;;;;;;;;;;;;;;;;;;;;
2022/03/11 03:27:59;;;;;;;18.42;12.52;;;;;;;;;;6153077;23;20494;-92
2022/03/11 03:30:25;;;;;;;18.85;12.55;;;;;;;;;;6126512;23;19998;-91
2022/03/11 03:32:54;;;;;;;18.15;12.25;;;;;;;;;;6126252;23;20015;-92
2022/03/11 03:35:20;;;;;;;20.60;13.60;;;;;;;;;;6152307;23;19994;-90
2022/03/11 03:37:48;;;;;;;18.75;12.35;;;;;;;;;;6126239;23;20009;-90
2022/03/11 03:40:15;;;;;;;18.85;12.13;;;;;;;;;;6127232;23;20001;-91
2022/03/11 03:42:45;;;;;;;20.02;13.45;;;;;;;;;;6128362;23;20016;-90
2022/03/11 03:45:11;;;;;;;22.17;12.57;;;;;;;;;;6129207;23;20052;-90
2022/03/11 03:47:37;;;;;;;23.85;14.07;;;;;;;;;;6147789;23;20092;-91
2022/03/11 03:50:06;;;;;;;19.80;14.20;;;;;;;;;;6128209;23;20002;-91
2022/03/11 03:52:33;;;;;;;19.00;13.63;;;;;;;;;;6128141;23;20009;-90
2022/03/11 03:55:07;;;;;;;18.63;13.32;;;;;;;;;;6154399;23;19998;-91
2022/03/11 03:57:34;;;;;;;23.13;14.25;;;;;;;;;;6128319;23;20109;-92
2022/03/11 04:00:00;;;;;;;19.38;13.98;;;;;;;;;;6128348;23;20056;-90
2022/03/11 04:02:26;;;;;;;22.85;13.80;;;;;;;;;;6128191;23;20037;-92
2022/03/11 04:04:54;;;;;;;20.88;13.95;;;;;;;;;;6128366;23;20006;-90
2022/03/11 04:07:21;;;;;;;20.67;14.85;;;;;;;;;;6128339;23;20401;-91
2022/03/11 04:09:49;;;;;;;22.30;15.13;;;;;;;;;;6128329;23;20029;-92
2022/03/11 04:12:17;;;;;;;24.25;15.27;;;;;;;;;;6154914;23;20005;-90
2022/03/11 04:14:43;;;;;;;22.83;14.25;;;;;;;;;;6128958;23;20009;-91
2022/03/11 04:17:14;;;;;;;24.58;15.15;;;;;;;;;;6128586;23;20105;-92
2022/03/11 04:19:40;;;;;;;26.90;15.65;;;;;;;;;;6127818;23;20093;-90
2022/03/11 04:22:09;;;;;;;22.63;14.85;;;;;;;;;;6128182;23;20168;-92
2022/03/11 04:24:35;;;;;;;29.30;15.95;;;;;;;;;;6154016;23;20469;-91
2022/03/11 04:27:01;;;;;;;22.50;15.60;;;;;;;;;;6128071;23;20005;-89
2022/03/11 04:29:37;;;;;;;21.98;15.30;;;;;;;;;;6128007;23;19998;-91
2022/03/11 04:32:04;;;;;;;21.25;16.02;;;;;;;;;;6127561;23;20522;-90
2022/03/11 04:34:37;;;;;;;27.25;15.90;;;;;;;;;;6154117;23;20002;-93
2022/03/11 04:37:06;;;;;;;21.10;15.13;;;;;;;;;;6127744;23;20009;-91
2022/03/11 04:39:34;;;;;;;24.65;15.18;;;;;;;;;;6128208;23;20016;-92
2022/03/11 04:42:06;;;;;;;22.65;15.48;;;;;;;;;;6128092;23;20020;-90
2022/03/11 04:44:35;;;;;;;26.98;15.20;;;;;;;;;;6153579;23;20025;-90
2022/03/11 04:47:01;;;;;;;22.33;15.40;;;;;;;;;;6153354;23;20014;-88
2022/03/11 04:49:27;;;;;;;24.00;16.08;;;;;;;;;;6127942;23;20037;-91
2022/03/11 04:51:53;;;;;;;25.40;14.70;;;;;;;;;;6127961;23;20084;-90
2022/03/11 04:54:20;;;;;;;20.27;14.32;;;;;;;;;;6126975;23;20005;-89
2022/03/11 04:56:46;;;;;;;23.08;14.63;;;;;;;;;;6127347;23;20072;-89
2022/03/11 04:59:12;;;;;;;22.80;14.52;;;;;;;;;;6126897;23;20008;-90
2022/03/11 05:01:38;;;;;;;20.02;14.15;;;;;;;;;;6127220;23;20018;-90
2022/03/11 05:04:04;;;;;;;24.02;13.82;;;;;;;;;;6127503;23;20009;-87
2022/03/11 05:06:30;;;;;;;19.50;13.15;;;;;;;;;;6152266;23;20013;-91
2022/03/11 05:08:56;;;;;;;19.30;13.02;;;;;;;;;;6126898;23;20338;-91
2022/03/11 05:11:22;;;;;;;22.83;14.57;;;;;;;;;;6152533;23;20002;-86
2022/03/11 05:23:52;;;;;;;;;;;;;;;;;;;;;
2022/03/11 05:33:04;;;;;;;21.83;14.02;;;;;;;;;;5796105;24;20042;-94
2022/03/11 07:05:05;;;;;;;21.85;12.32;;;;;;;;;;5843735;24;20048;-93
2022/03/11 07:33:07;;;;;;;19.25;10.80;;;;;;;;;;5067458;28;20379;-90
2022/03/11 07:35:33;;;;;;;17.63;10.82;;;;;;;;;;5065621;28;20052;-90
2022/03/11 07:37:59;;;;;;;17.90;11.07;;;;;;;;;;5065675;28;20028;-90
2022/03/11 07:40:26;;;;;;;19.08;11.85;;;;;;;;;;5066397;28;20029;-89
2022/03/11 07:42:52;;;;;;;16.98;11.02;;;;;;;;;;5067628;28;20388;-90
2022/03/11 07:45:19;;;;;;;17.95;11.18;;;;;;;;;;5065594;28;20427;-90
2022/03/11 07:47:45;;;;;;;21.02;11.95;;;;;;;;;;5065705;28;20489;-89
2022/03/11 07:50:12;;;;;;;15.52;10.73;;;;;;;;;;5065141;28;20031;-89
2022/03/11 07:52:38;;;;;;;19.73;11.07;;;;;;;;;;5066523;28;20037;-89
2022/03/11 07:55:08;;;;;;;16.92;10.95;;;;;;;;;;5065424;28;20415;-90
2022/03/11 07:57:36;;;;;;;22.25;11.75;;;;;;;;;;5065315;28;20029;-89
2022/03/11 08:00:05;;;;;;;21.35;10.30;;;;;;;;;;5065147;28;20033;-91
2022/03/11 08:02:32;;;;;;;19.05;11.45;;;;;;;;;;5066143;28;20052;-89
2022/03/11 08:04:58;;;;;;;17.67;11.90;;;;;;;;;;5064896;28;20033;-89
2022/03/11 08:07:24;;;;;;;17.20;10.50;;;;;;;;;;5067083;28;20489;-90
2022/03/11 08:09:50;;;;;;;22.80;11.50;;;;;;;;;;5066240;28;20029;-89
2022/03/11 08:12:16;;;;;;;16.33;11.05;;;;;;;;;;5066134;28;20029;-91
2022/03/11 08:14:43;;;;;;;17.38;10.77;;;;;;;;;;5065012;28;20021;-90
2022/03/11 08:17:10;;;;;;;22.95;12.00;;;;;;;;;;5066280;28;20391;-90
2022/03/11 08:19:36;;;;;;;25.15;11.38;;;;;;;;;;5064968;28;20127;-90
2022/03/11 08:22:02;;;;;;;19.45;10.82;;;;;;;;;;5064927;28;20523;-91
2022/03/11 08:24:29;;;;;;;20.67;11.90;;;;;;;;;;5066857;28;20036;-90
2022/03/11 08:26:55;;;;;;;20.85;11.88;;;;;;;;;;5066964;28;20519;-90
2022/03/11 08:29:24;;;;;;;20.17;11.75;;;;;;;;;;5066167;28;20032;-90
2022/03/11 08:31:50;;;;;;;16.20;10.68;;;;;;;;;;5064428;28;20040;-90
2022/03/11 08:34:17;;;;;;;18.25;11.45;;;;;;;;;;5065939;28;20016;-89
2022/03/11 08:36:43;;;;;;;24.63;12.63;;;;;;;;;;5065881;28;20442;-91
2022/03/11 08:39:09;;;;;;;19.52;11.23;;;;;;;;;;5065712;28;20043;-89
2022/03/11 08:41:35;;;;;;;24.05;12.70;;;;;;;;;;5065779;28;20040;-90
2022/03/11 08:44:03;;;;;;;20.02;11.85;;;;;;;;;;5052814;28;20029;-89
2022/03/11 08:46:30;;;;;;;20.17;11.77;;;;;;;;;;5053317;28;20088;-90
2022/03/11 08:48:56;;;;;;;21.75;11.57;;;;;;;;;;5051820;28;20113;-90
2022/03/11 08:51:22;;;;;;;17.67;10.85;;;;;;;;;;5051459;28;20064;-90
2022/03/11 08:53:49;;;;;;;18.13;11.63;;;;;;;;;;5051260;28;20025;-90
2022/03/11 08:56:20;;;;;;;21.15;11.50;;;;;;;;;;5052523;28;20029;-90
2022/03/11 08:58:46;;;;;;;22.42;11.55;;;;;;;;;;5052627;28;20029;-90
2022/03/11 09:01:12;;;;;;;20.45;11.70;;;;;;;;;;5051383;28;20516;-90
2022/03/11 09:03:38;;;;;;;17.58;10.75;;;;;;;;;;5051024;28;20025;-89
2022/03/11 09:06:05;;;;;;;21.60;10.68;;;;;;;;;;5051171;28;20044;-90
2022/03/11 09:08:31;;;;;;;18.15;10.80;;;;;;;;;;5053013;28;20044;-89
2022/03/11 09:10:57;;;;;;;16.85;11.32;;;;;;;;;;5052686;28;20126;-89
2022/03/11 09:13:23;;;;;;;19.00;11.10;;;;;;;;;;5050553;28;20047;-90
2022/03/11 09:15:49;;;;;;;21.13;11.48;;;;;;;;;;5051541;28;20029;-89
2022/03/11 09:18:15;;;;;;;23.50;11.65;;;;;;;;;;5051751;28;20028;-90
2022/03/11 09:20:41;;;;;;;25.60;11.60;;;;;;;;;;5050466;28;20029;-88
2022/03/11 09:23:08;;;;;;;22.42;11.93;;;;;;;;;;5051359;28;20028;-90
2022/03/11 09:25:34;;;;;;;22.30;11.65;;;;;;;;;;5050391;28;20029;-89
2022/03/11 09:28:00;;;;;;;20.58;11.48;;;;;;;;;;5052097;28;20025;-89
2022/03/11 09:30:26;;;;;;;19.33;11.18;;;;;;;;;;5051318;28;20541;-89
2022/03/11 09:32:52;;;;;;;24.95;11.48;;;;;;;;;;5049938;28;20041;-89
2022/03/11 09:35:18;;;;;;;19.88;11.30;;;;;;;;;;5051439;28;20017;-90
2022/03/11 09:37:44;;;;;;;20.75;11.23;;;;;;;;;;5050065;28;20033;-89
2022/03/11 09:40:12;;;;;;;22.17;11.45;;;;;;;;;;5051341;28;20022;-89
2022/03/11 09:42:38;;;;;;;19.85;11.48;;;;;;;;;;5049837;28;20072;-89
2022/03/11 09:45:04;;;;;;;25.02;11.68;;;;;;;;;;5050056;28;20025;-89
2022/03/11 09:47:32;;;;;;;18.73;10.70;;;;;;;;;;5052066;28;20028;-91
2022/03/11 09:49:58;;;;;;;18.58;10.82;;;;;;;;;;5049968;28;20036;-89
2022/03/11 09:52:25;;;;;;;21.08;11.30;;;;;;;;;;5050994;28;20359;-89
2022/03/11 09:54:51;;;;;;;18.02;9.90;;;;;;;;;;5050094;28;20021;-90
2022/03/11 09:57:19;;;;;;;15.13;9.85;;;;;;;;;;5050967;28;20420;-90
2022/03/11 09:59:45;;;;;;;17.67;10.13;;;;;;;;;;5049724;28;20036;-91
2022/03/11 10:02:20;;;;;;;13.93;9.50;;;;;;;;;;5050895;28;20477;-91
2022/03/11 10:04:50;;;;;;;15.80;10.23;;;;;;;;;;5049549;28;20025;-89
2022/03/11 10:07:30;;;;;;;15.90;9.68;;;;;;;;;;5049482;28;20061;-90
2022/03/11 10:09:57;;;;;;;16.92;9.90;;;;;;;;;;5049663;28;20029;-90
2022/03/11 10:12:28;;;;;;;16.27;9.70;;;;;;;;;;5050869;28;20492;-89
2022/03/11 10:14:55;;;;;;;13.77;7.97;;;;;;;;;;5050875;28;20066;-90
2022/03/11 10:17:22;;;;;;;18.93;7.97;;;;;;;;;;5049693;28;20025;-90
2022/03/11 10:19:55;;;;;;;14.80;6.70;;;;;;;;;;5049282;28;20410;-90
2022/03/11 10:22:25;;;;;;;14.77;6.47;;;;;;;;;;5050470;28;20507;-89
2022/03/11 10:24:51;;;;;;;9.65;4.68;;;;;;;;;;5049105;28;20534;-89
2022/03/11 10:27:17;;;;;;;6.85;4.03;;;;;;;;;;5050448;28;20029;-89
2022/03/11 10:29:43;;;;;;;11.32;4.60;;;;;;;;;;5049182;28;20408;-89
2022/03/11 10:32:09;;;;;;;11.48;4.10;;;;;;;;;;5050021;28;20059;-90
2022/03/11 10:34:36;;;;;;;8.13;3.88;;;;;;;;;;5049697;28;20074;-90
2022/03/11 10:37:02;;;;;;;10.75;4.03;;;;;;;;;;5049772;28;20025;-89
2022/03/11 10:39:30;;;;;;;12.95;3.88;;;;;;;;;;5050132;28;20032;-89
2022/03/11 10:42:00;;;;;;;9.20;4.35;;;;;;;;;;5048799;28;20055;-89
2022/03/11 10:44:28;;;;;;;10.48;3.83;;;;;;;;;;5048997;28;20242;-90
2022/03/11 10:46:54;;;;;;;8.60;3.50;;;;;;;;;;5048998;28;20025;-89
2022/03/11 10:49:33;;;;;;;8.68;3.85;;;;;;;;;;5048788;28;20029;-90
2022/03/11 10:52:00;;;;;;;12.80;3.83;;;;;;;;;;5048583;28;20041;-91
2022/03/11 10:54:27;;;;;;;7.72;3.40;;;;;;;;;;5050056;28;20496;-91
2022/03/11 10:56:53;;;;;;;11.02;3.38;;;;;;;;;;5050317;28;20079;-90
2022/03/11 10:59:19;;;;;;;9.68;3.22;;;;;;;;;;5048727;28;20388;-90
2022/03/11 11:01:46;;;;;;;10.07;2.85;;;;;;;;;;5049751;28;20059;-90
2022/03/11 11:04:14;;;;;;;8.15;2.53;;;;;;;;;;5048750;28;20427;-90
2022/03/11 11:06:40;;;;;;;;;;;;;;;;;;5048849;28;20079;-89
2022/03/11 11:09:07;;;;;;;6.75;2.08;;;;;;;;;;5049387;28;20299;-89
2022/03/11 11:11:34;;;;;;;6.90;1.88;;;;;;;;;;5049132;28;20072;-90
2022/03/11 11:14:00;;;;;;;10.65;2.00;;;;;;;;;;5048366;28;20017;-91
2022/03/11 11:16:31;;;;;;;6.55;2.30;;;;;;;;;;5049586;28;20499;-90
2022/03/11 11:18:57;;;;;;;9.15;2.03;;;;;;;;;;5049453;28;20155;-89
2022/03/11 11:21:24;;;;;;;8.95;2.35;;;;;;;;;;5048220;28;20380;-89
2022/03/11 11:23:57;;;;;;;8.68;1.95;;;;;;;;;;5049415;28;20021;-91
2022/03/11 11:26:24;;;;;;;9.75;2.13;;;;;;;;;;5048160;28;20029;-89
2022/03/11 11:28:54;;;;;;;13.57;1.90;;;;;;;;;;5049500;28;20480;-89
2022/03/11 11:31:20;;;;;;;10.13;2.15;;;;;;;;;;5049344;28;20025;-89
2022/03/11 11:33:47;;;;;;;7.65;1.80;;;;;;;;;;5048282;28;20033;-90
2022/03/11 11:36:13;;;;;;;11.63;2.10;;;;;;;;;;5049642;28;20028;-90
2022/03/11 11:38:43;;;;;;;13.15;2.40;;;;;;;;;;5049852;28;20021;-90
2022/03/11 11:41:18;;;;;;;8.82;1.95;;;;;;;;;;5050221;28;20025;-89
2022/03/11 11:44:00;;;;;;;20.05;3.58;;;;;;;;;;5049287;28;20100;-89
2022/03/11 11:46:27;;;;;;;12.38;2.30;;;;;;;;;;5049084;28;20025;-90
2022/03/11 11:48:53;;;;;;;14.40;2.22;;;;;;;;;;5049171;28;20028;-89
2022/03/11 11:51:21;;;;;;;13.98;3.03;;;;;;;;;;5047837;28;20040;-90
2022/03/11 11:53:55;;;;;;;12.50;2.33;;;;;;;;;;5049182;28;20369;-90
2022/03/11 11:56:37;;;;;;;12.38;2.72;;;;;;;;;;5049254;28;20100;-89
2022/03/11 11:59:10;;;;;;;10.00;2.30;;;;;;;;;;5049151;28;20067;-90
2022/03/11 12:01:39;;;;;;;10.27;1.90;;;;;;;;;;5050243;28;20032;-90
2022/03/11 12:04:24;;;;;;;9.60;1.77;;;;;;;;;;5048589;28;20025;-90
2022/03/11 12:06:56;;;;;;;14.25;2.28;;;;;;;;;;5047793;28;20033;-89
2022/03/11 12:09:42;;;;;;;14.75;2.45;;;;;;;;;;5047971;28;20369;-90
2022/03/11 12:12:08;;;;;;;16.38;2.45;;;;;;;;;;5049929;28;20036;-91
2022/03/11 12:14:54;;;;;;;13.23;2.35;;;;;;;;;;5048080;28;20036;-90
2022/03/11 12:17:39;;;;;;;15.75;2.30;;;;;;;;;;5047748;28;20029;-89
2022/03/11 12:20:37;;;;;;;11.93;2.00;;;;;;;;;;5051760;28;20028;-89
2022/03/11 12:23:08;;;;;;;12.00;1.95;;;;;;;;;;5040962;28;20128;-90
2022/03/11 12:25:36;;;;;;;16.75;2.97;;;;;;;;;;5051382;28;20028;-90
2022/03/11 12:28:21;;;;;;;13.27;2.78;;;;;;;;;;5052877;28;20223;-89
2022/03/11 12:30:47;;;;;;;12.27;2.35;;;;;;;;;;5051249;28;20037;-89
2022/03/11 12:33:20;;;;;;;10.75;2.15;;;;;;;;;;5052541;28;20025;-90
2022/03/11 12:35:47;;;;;;;14.45;2.63;;;;;;;;;;5051110;28;20524;-89
2022/03/11 12:38:15;;;;;;;19.48;2.40;;;;;;;;;;5051341;28;20025;-89
2022/03/11 12:40:41;;;;;;;17.73;2.50;;;;;;;;;;5053043;28;20032;-89
2022/03/11 12:43:09;;;;;;;17.05;2.50;;;;;;;;;;5052320;28;20025;-90
2022/03/11 12:45:35;;;;;;;17.67;2.42;;;;;;;;;;5052240;28;20500;-89
2022/03/11 12:48:01;;;;;;;19.23;2.47;;;;;;;;;;5051911;28;20384;-89
2022/03/11 12:50:28;;;;;;;20.83;2.83;;;;;;;;;;5050624;28;20028;-89
2022/03/11 12:52:58;;;;;;;21.63;2.85;;;;;;;;;;5050242;28;20037;-89
2022/03/11 12:55:30;;;;;;;20.42;2.90;;;;;;;;;;5052167;28;20049;-91
2022/03/11 12:57:58;;;;;;;20.00;2.85;;;;;;;;;;5050290;28;20417;-89
2022/03/11 13:00:29;;;;;;;20.63;3.30;;;;;;;;;;5050473;28;20020;-91
2022/03/11 13:02:56;;;;;;;17.40;2.53;;;;;;;;;;5048119;28;20024;-90
2022/03/11 13:05:23;;;;;;;13.98;3.03;;;;;;;;;;5050473;28;20108;-91
2022/03/11 13:07:50;;;;;;;20.58;2.63;;;;;;;;;;5051189;28;20432;-89
2022/03/11 13:10:22;;;;;;;16.80;2.25;;;;;;;;;;5050154;28;20078;-90
2022/03/11 13:12:50;;;;;;;16.40;3.05;;;;;;;;;;5051045;28;20072;-91
2022/03/11 13:15:16;;;;;;;;;;;;;;;;;;5050551;28;20538;-91
2022/03/11 13:17:43;;;;;;;16.75;2.70;;;;;;;;;;5052123;28;19991;-89
2022/03/11 13:20:25;;;;;;;20.85;2.95;;;;;;;;;;5050890;28;20412;-89
2022/03/11 13:22:51;;;;;;;21.80;3.45;;;;;;;;;;5049246;28;20025;-89
2022/03/11 13:25:23;;;;;;;24.50;3.22;;;;;;;;;;5049616;28;20052;-89
2022/03/11 13:27:49;;;;;;;17.90;2.72;;;;;;;;;;5050814;28;20021;-90
2022/03/11 13:30:16;;;;;;;19.13;3.10;;;;;;;;;;5051989;28;20586;-95
2022/03/11 13:32:42;;;;;;;18.65;2.85;;;;;;;;;;5050938;28;20040;-90
2022/03/11 13:35:10;;;;;;;21.70;2.80;;;;;;;;;;5049433;28;20025;-91
2022/03/11 13:37:44;;;;;;;26.90;2.95;;;;;;;;;;5050796;28;20540;-91
2022/03/11 13:40:11;;;;;;;19.15;2.80;;;;;;;;;;5050608;28;20017;-89
2022/03/11 13:42:37;;;;;;;21.65;3.20;;;;;;;;;;5050933;28;20207;-90
2022/03/11 13:45:05;;;;;;;20.38;2.75;;;;;;;;;;5049776;28;20469;-90
2022/03/11 13:47:31;;;;;;;16.88;2.90;;;;;;;;;;5050534;28;20044;-90
2022/03/11 13:50:05;;;;;;;21.45;2.70;;;;;;;;;;5049842;28;20377;-90
2022/03/11 13:52:39;;;;;;;22.65;3.03;;;;;;;;;;5049918;28;20033;-88
2022/03/11 13:55:07;;;;;;;23.67;2.45;;;;;;;;;;5050859;28;20017;-90
2022/03/11 13:57:34;;;;;;;20.13;2.47;;;;;;;;;;5063861;28;20005;-89
2022/03/11 14:00:15;;;;;;;13.75;2.28;;;;;;;;;;5070953;28;19997;-90
2022/03/11 14:02:42;;;;;;;15.32;2.50;;;;;;;;;;5059500;28;20110;-89
2022/03/11 14:05:21;;;;;;;20.20;2.35;;;;;;;;;;5063402;28;20037;-88
2022/03/11 14:07:48;;;;;;;19.42;2.78;;;;;;;;;;5063797;28;20033;-90
2022/03/11 14:10:19;;;;;;;19.20;2.55;;;;;;;;;;5056068;28;20041;-90
2022/03/11 14:12:49;;;;;;;15.05;2.50;;;;;;;;;;5049636;28;20040;-89
2022/03/11 14:15:18;;;;;;;22.35;3.45;;;;;;;;;;5048704;28;20023;-90
2022/03/11 14:17:44;;;;;;;21.40;2.85;;;;;;;;;;5048321;28;20043;-88
2022/03/11 14:20:11;;;;;;;17.70;2.92;;;;;;;;;;5047535;28;20023;-88
2022/03/11 14:22:38;;;;;;;25.65;3.40;;;;;;;;;;5048849;28;20036;-89
2022/03/11 14:25:05;;;;;;;24.40;3.03;;;;;;;;;;5048819;28;20036;-91
2022/03/11 14:27:31;;;;;;;17.90;2.88;;;;;;;;;;5047869;28;20025;-90
2022/03/11 14:29:58;;;;;;;23.15;2.95;;;;;;;;;;5049234;28;20024;-90
2022/03/11 14:32:24;;;;;;;19.83;3.03;;;;;;;;;;5048487;28;20036;-90
2022/03/11 14:34:52;;;;;;;23.35;3.42;;;;;;;;;;5048752;28;20024;-87
2022/03/11 14:37:26;;;;;;;17.40;2.60;;;;;;;;;;5050888;28;20485;-93
2022/03/11 14:39:53;;;;;;;23.38;2.58;;;;;;;;;;5048401;28;20033;-89
2022/03/11 14:42:22;;;;;;;18.15;2.03;;;;;;;;;;5048726;28;20059;-92
2022/03/11 14:44:48;;;;;;;20.80;3.08;;;;;;;;;;5050465;28;20025;-91
2022/03/11 14:47:14;;;;;;;21.10;3.03;;;;;;;;;;5051107;28;20040;-91
2022/03/11 14:49:47;;;;;;;20.48;2.60;;;;;;;;;;5049447;28;20021;-90
2022/03/11 14:52:13;;;;;;;18.35;2.67;;;;;;;;;;5049935;28;20037;-91
2022/03/11 14:54:40;;;;;;;28.88;3.13;;;;;;;;;;5048212;28;20028;-89
2022/03/11 14:57:07;;;;;;;12.98;2.60;;;;;;;;;;5050027;28;20024;-92
2022/03/11 14:59:33;;;;;;;17.90;3.72;;;;;;;;;;5049799;28;20028;-90
2022/03/11 15:01:59;;;;;;;14.73;2.33;;;;;;;;;;5053135;28;20033;-90
2022/03/11 15:04:25;;;;;;;15.10;2.30;;;;;;;;;;5047862;28;20029;-90
2022/03/11 15:06:52;;;;;;;17.92;2.30;;;;;;;;;;5048690;28;20502;-90
2022/03/11 15:09:18;;;;;;;16.65;2.30;;;;;;;;;;5049281;28;20032;-89
2022/03/11 15:11:46;;;;;;;12.32;2.50;;;;;;;;;;5049305;28;20037;-90
2022/03/11 15:14:12;;;;;;;16.23;2.45;;;;;;;;;;5048804;28;20032;-90
2022/03/11 15:16:38;;;;;;;11.30;2.00;;;;;;;;;;5048857;28;20400;-91
2022/03/11 15:19:04;;;;;;;15.13;2.28;;;;;;;;;;5049414;28;20025;-92
2022/03/11 15:21:31;;;;;;;14.68;1.95;;;;;;;;;;5049474;28;20033;-88
2022/03/11 15:23:57;;;;;;;16.58;2.72;;;;;;;;;;5060340;28;20405;-91
2022/03/11 15:26:23;;;;;;;8.00;1.95;;;;;;;;;;5051039;28;20025;-89
2022/03/11 15:28:49;;;;;;;17.15;2.75;;;;;;;;;;5050341;28;20392;-88
2022/03/11 15:31:15;;;;;;;15.32;2.30;;;;;;;;;;5047407;28;20039;-89
2022/03/11 15:33:41;;;;;;;17.42;2.75;;;;;;;;;;5048815;28;20484;-88
2022/03/11 15:36:08;;;;;;;19.13;2.50;;;;;;;;;;5049183;28;20032;-89
2022/03/11 15:38:34;;;;;;;18.00;3.33;;;;;;;;;;5047593;28;20025;-92
2022/03/11 15:41:00;;;;;;;19.02;2.63;;;;;;;;;;5047581;28;20025;-92
2022/03/11 15:43:26;;;;;;;16.08;2.47;;;;;;;;;;5048201;28;20554;-90
2022/03/11 15:45:52;;;;;;;14.80;2.55;;;;;;;;;;5047879;28;20048;-92
2022/03/11 15:48:18;;;;;;;13.82;2.53;;;;;;;;;;5048437;28;20508;-89
2022/03/11 15:50:45;;;;;;;16.50;2.25;;;;;;;;;;5048733;28;20052;-89
2022/03/11 15:53:11;;;;;;;13.32;2.22;;;;;;;;;;5053001;28;20258;-88
2022/03/11 15:55:37;;;;;;;21.10;3.10;;;;;;;;;;5053604;28;20083;-88
2022/03/11 15:58:03;;;;;;;17.42;2.15;;;;;;;;;;5053925;28;20023;-87
2022/03/11 16:00:30;;;;;;;14.82;2.40;;;;;;;;;;5053548;28;20032;-90
2022/03/11 16:02:56;;;;;;;8.80;2.30;;;;;;;;;;5052872;28;20112;-90
2022/03/11 16:05:23;;;;;;;9.90;1.90;;;;;;;;;;5053268;28;20025;-88
2022/03/11 16:07:49;;;;;;;10.38;1.92;;;;;;;;;;5051426;28;20021;-90
2022/03/11 16:10:16;;;;;;;13.80;2.30;;;;;;;;;;5058939;28;20035;-90
2022/03/11 16:12:43;;;;;;;12.57;2.30;;;;;;;;;;5052827;28;20254;-91
2022/03/11 16:15:10;;;;;;;15.65;2.05;;;;;;;;;;5053433;28;20401;-91
2022/03/11 16:17:36;;;;;;;17.33;1.85;;;;;;;;;;5052278;28;20039;-91
2022/03/11 16:20:04;;;;;;;15.60;2.60;;;;;;;;;;5053482;28;20388;-90
2022/03/11 16:22:30;;;;;;;11.27;1.70;;;;;;;;;;5053821;28;20025;-90
2022/03/11 16:24:56;;;;;;;15.05;2.72;;;;;;;;;;5051862;28;20763;-89
2022/03/11 16:27:22;;;;;;;12.35;2.03;;;;;;;;;;5054128;28;20024;-88
2022/03/11 16:29:49;;;;;;;12.60;2.35;;;;;;;;;;5053337;28;20021;-89
2022/03/11 16:32:15;;;;;;;10.93;2.20;;;;;;;;;;5051116;28;20072;-89
2022/03/11 16:34:42;;;;;;;10.07;2.25;;;;;;;;;;5051633;28;20072;-90
2022/03/11 16:37:08;;;;;;;6.03;1.60;;;;;;;;;;5068722;28;20032;-89
2022/03/11 16:39:34;;;;;;;8.50;1.58;;;;;;;;;;5064915;28;20021;-89
2022/03/11 16:42:01;;;;;;;8.45;1.73;;;;;;;;;;5051907;28;20082;-88
2022/03/11 16:44:27;;;;;;;7.97;1.63;;;;;;;;;;5052858;28;20024;-90
2022/03/11 16:46:53;;;;;;;5.13;1.70;;;;;;;;;;5053661;28;20032;-87
2022/03/11 16:49:20;;;;;;;4.35;1.33;;;;;;;;;;5052845;28;20069;-89
2022/03/11 16:51:46;;;;;;;6.22;1.48;;;;;;;;;;5052594;28;20485;-89
2022/03/11 16:54:13;;;;;;;15.25;1.90;;;;;;;;;;5051493;28;20029;-90
2022/03/11 16:56:40;;;;;;;5.63;1.85;;;;;;;;;;5052174;28;20017;-90
2022/03/11 16:59:07;;;;;;;6.50;1.80;;;;;;;;;;5052463;28;20507;-91
2022/03/11 17:01:33;;;;;;;5.22;1.70;;;;;;;;;;5052300;28;20549;-92
2022/03/11 17:03:59;;;;;;;5.38;1.45;;;;;;;;;;5052014;28;20025;-92
2022/03/11 17:06:34;;;;;;;8.20;1.90;;;;;;;;;;5051593;28;20115;-92
2022/03/11 17:09:00;;;;;;;8.38;1.92;;;;;;;;;;5051269;28;20025;-90
2022/03/11 17:11:29;;;;;;;7.75;2.13;;;;;;;;;;5051163;28;20036;-90
2022/03/11 17:13:55;;;;;;;8.48;2.45;;;;;;;;;;5051977;28;20392;-88
2022/03/11 17:16:29;;;;;;;8.55;2.92;;;;;;;;;;5051824;28;20519;-90
2022/03/11 17:18:55;;;;;;;9.65;2.30;;;;;;;;;;5037357;28;20022;-91
2022/03/11 17:21:23;;;;;;;12.38;2.33;;;;;;;;;;5037678;28;20025;-90
2022/03/11 17:23:53;;;;;;;8.77;2.05;;;;;;;;;;5047993;28;20017;-90
2022/03/11 17:26:42;;;;;;;15.90;2.38;;;;;;;;;;5049902;28;20119;-92
2022/03/11 17:29:08;;;;;;;8.68;2.05;;;;;;;;;;5049111;28;20124;-90
2022/03/11 17:31:34;;;;;;;9.25;2.20;;;;;;;;;;5048033;28;20040;-92
2022/03/11 17:34:09;;;;;;;13.07;2.75;;;;;;;;;;5047098;28;20083;-92
2022/03/11 17:36:39;;;;;;;19.23;3.33;;;;;;;;;;5050908;28;20539;-91
2022/03/11 17:39:05;;;;;;;11.80;3.25;;;;;;;;;;5050540;28;20443;-90
2022/03/11 17:41:31;;;;;;;13.38;3.10;;;;;;;;;;5050483;28;20032;-90
2022/03/11 17:44:03;;;;;;;8.13;2.20;;;;;;;;;;5050236;28;20499;-93
2022/03/11 17:56:06;;;;;;;5.03;1.85;;;;;;;;;;4904729;29;20107;-94
2022/03/11 18:08:58;;;;;;;6.75;1.98;;;;;;;;;;4922861;29;20056;-93